sensor_id;sensor_type;location;lat;lon;timestamp;P1;durP1;ratioP1;P2;durP2;ratioP2
53367;SDS011;39271;45.618;20.024;2022-11-15T00:00:49;2.85;;;2.30;;
53367;SDS011;39271;45.618;20.024;2022-11-15T00:03:18;2.83;;;2.13;;
53367;SDS011;39271;45.618;20.024;2022-11-15T00:05:45;1.98;;;1.27;;
53367;SDS011;39271;45.618;20.024;2022-11-15T00:08:11;1.27;;;1.02;;
53367;SDS011;39271;45.618;20.024;2022-11-15T00:13:07;3.92;;;2.85;;
53367;SDS011;39271;45.618;20.024;2022-11-15T00:15:37;3.20;;;2.78;;
53367;SDS011;39271;45.618;20.024;2022-11-15T00:18:03;2.25;;;1.90;;
53367;SDS011;39271;45.618;20.024;2022-11-15T00:20:30;4.20;;;2.95;;
53367;SDS011;39271;45.618;20.024;2022-11-15T00:25:22;3.88;;;1.75;;
53367;SDS011;39271;45.618;20.024;2022-11-15T00:27:48;1.92;;;1.83;;
53367;SDS011;39271;45.618;20.024;2022-11-15T00:30:14;4.25;;;2.28;;
53367;SDS011;39271;45.618;20.024;2022-11-15T00:35:06;2.38;;;1.33;;
53367;SDS011;39271;45.618;20.024;2022-11-15T00:39:58;4.40;;;2.25;;
53367;SDS011;39271;45.618;20.024;2022-11-15T00:42:24;3.55;;;2.17;;
53367;SDS011;39271;45.618;20.024;2022-11-15T00:44:53;2.28;;;1.65;;
53367;SDS011;39271;45.618;20.024;2022-11-15T00:47:19;1.95;;;1.73;;
53367;SDS011;39271;45.618;20.024;2022-11-15T00:49:45;1.33;;;1.00;;
53367;SDS011;39271;45.618;20.024;2022-11-15T00:52:11;1.20;;;1.00;;
53367;SDS011;39271;45.618;20.024;2022-11-15T00:54:37;1.88;;;1.65;;
53367;SDS011;39271;45.618;20.024;2022-11-15T00:57:03;1.58;;;1.48;;
53367;SDS011;39271;45.618;20.024;2022-11-15T01:01:55;4.07;;;2.00;;
53367;SDS011;39271;45.618;20.024;2022-11-15T01:04:21;1.65;;;1.33;;
53367;SDS011;39271;45.618;20.024;2022-11-15T01:06:47;0.60;;;0.60;;
53367;SDS011;39271;45.618;20.024;2022-11-15T01:09:13;4.45;;;1.33;;
53367;SDS011;39271;45.618;20.024;2022-11-15T01:11:39;2.45;;;1.63;;
53367;SDS011;39271;45.618;20.024;2022-11-15T01:14:06;1.17;;;0.95;;
53367;SDS011;39271;45.618;20.024;2022-11-15T01:16:32;2.55;;;1.52;;
53367;SDS011;39271;45.618;20.024;2022-11-15T01:18:58;1.58;;;1.10;;
53367;SDS011;39271;45.618;20.024;2022-11-15T01:23:54;0.93;;;0.80;;
53367;SDS011;39271;45.618;20.024;2022-11-15T01:26:20;1.30;;;0.85;;
53367;SDS011;39271;45.618;20.024;2022-11-15T01:28:47;0.88;;;0.88;;
53367;SDS011;39271;45.618;20.024;2022-11-15T01:31:14;2.30;;;1.10;;
53367;SDS011;39271;45.618;20.024;2022-11-15T01:33:41;2.40;;;1.77;;
53367;SDS011;39271;45.618;20.024;2022-11-15T01:36:08;1.55;;;1.45;;
53367;SDS011;39271;45.618;20.024;2022-11-15T01:38:35;0.65;;;0.65;;
53367;SDS011;39271;45.618;20.024;2022-11-15T01:41:01;2.22;;;1.25;;
53367;SDS011;39271;45.618;20.024;2022-11-15T01:43:29;5.05;;;1.05;;
53367;SDS011;39271;45.618;20.024;2022-11-15T01:46:00;3.17;;;1.33;;
53367;SDS011;39271;45.618;20.024;2022-11-15T01:48:30;0.93;;;0.80;;
53367;SDS011;39271;45.618;20.024;2022-11-15T01:50:58;5.85;;;2.35;;
53367;SDS011;39271;45.618;20.024;2022-11-15T01:53:24;1.20;;;1.10;;
53367;SDS011;39271;45.618;20.024;2022-11-15T01:55:52;2.10;;;1.05;;
53367;SDS011;39271;45.618;20.024;2022-11-15T01:58:18;3.42;;;1.90;;
53367;SDS011;39271;45.618;20.024;2022-11-15T02:00:44;2.75;;;1.85;;
53367;SDS011;39271;45.618;20.024;2022-11-15T02:03:10;1.83;;;1.65;;
53367;SDS011;39271;45.618;20.024;2022-11-15T02:05:36;1.60;;;1.08;;
53367;SDS011;39271;45.618;20.024;2022-11-15T02:08:03;1.88;;;1.00;;
53367;SDS011;39271;45.618;20.024;2022-11-15T02:12:55;2.42;;;1.98;;
53367;SDS011;39271;45.618;20.024;2022-11-15T02:15:23;1.52;;;1.42;;
53367;SDS011;39271;45.618;20.024;2022-11-15T02:25:41;1.05;;;0.80;;
53367;SDS011;39271;45.618;20.024;2022-11-15T02:42:03;3.25;;;1.10;;
53367;SDS011;39271;45.618;20.024;2022-11-15T02:44:51;2.80;;;1.08;;
53367;SDS011;39271;45.618;20.024;2022-11-15T02:47:19;0.95;;;0.93;;
53367;SDS011;39271;45.618;20.024;2022-11-15T02:49:50;1.77;;;0.95;;
53367;SDS011;39271;45.618;20.024;2022-11-15T02:52:17;1.23;;;1.13;;
53367;SDS011;39271;45.618;20.024;2022-11-15T02:54:52;1.70;;;1.08;;
53367;SDS011;39271;45.618;20.024;2022-11-15T02:57:18;1.10;;;0.88;;
53367;SDS011;39271;45.618;20.024;2022-11-15T03:09:39;2.20;;;1.52;;
53367;SDS011;39271;45.618;20.024;2022-11-15T03:12:07;0.60;;;0.60;;
53367;SDS011;39271;45.618;20.024;2022-11-15T03:14:35;1.02;;;0.52;;
53367;SDS011;39271;45.618;20.024;2022-11-15T03:19:46;0.60;;;0.60;;
53367;SDS011;39271;45.618;20.024;2022-11-15T03:22:15;1.35;;;0.85;;
53367;SDS011;39271;45.618;20.024;2022-11-15T03:24:42;1.27;;;1.17;;
53367;SDS011;39271;45.618;20.024;2022-11-15T03:27:09;2.55;;;0.82;;
53367;SDS011;39271;45.618;20.024;2022-11-15T03:29:38;1.95;;;0.93;;
53367;SDS011;39271;45.618;20.024;2022-11-15T03:32:12;1.58;;;1.10;;
53367;SDS011;39271;45.618;20.024;2022-11-15T03:34:41;1.13;;;0.90;;
53367;SDS011;39271;45.618;20.024;2022-11-15T03:37:08;1.13;;;1.05;;
53367;SDS011;39271;45.618;20.024;2022-11-15T03:39:36;0.60;;;0.60;;
53367;SDS011;39271;45.618;20.024;2022-11-15T03:44:46;0.68;;;0.45;;
53367;SDS011;39271;45.618;20.024;2022-11-15T03:47:21;0.65;;;0.60;;
53367;SDS011;39271;45.618;20.024;2022-11-15T03:49:50;1.98;;;1.15;;
53367;SDS011;39271;45.618;20.024;2022-11-15T03:52:18;0.70;;;0.70;;
53367;SDS011;39271;45.618;20.024;2022-11-15T03:54:49;2.53;;;1.50;;
53367;SDS011;39271;45.618;20.024;2022-11-15T03:57:15;0.40;;;0.40;;
53367;SDS011;39271;45.618;20.024;2022-11-15T03:59:41;0.85;;;0.82;;
53367;SDS011;39271;45.618;20.024;2022-11-15T04:02:07;2.20;;;1.75;;
53367;SDS011;39271;45.618;20.024;2022-11-15T04:04:33;1.42;;;1.33;;
53367;SDS011;39271;45.618;20.024;2022-11-15T04:06:59;0.98;;;0.90;;
53367;SDS011;39271;45.618;20.024;2022-11-15T04:09:25;1.48;;;1.38;;
53367;SDS011;39271;45.618;20.024;2022-11-15T04:11:54;1.13;;;0.95;;
53367;SDS011;39271;45.618;20.024;2022-11-15T04:14:20;1.13;;;1.02;;
53367;SDS011;39271;45.618;20.024;2022-11-15T04:19:12;1.20;;;1.10;;
53367;SDS011;39271;45.618;20.024;2022-11-15T04:21:57;3.33;;;1.58;;
53367;SDS011;39271;45.618;20.024;2022-11-15T04:24:41;1.52;;;1.15;;
53367;SDS011;39271;45.618;20.024;2022-11-15T04:27:07;3.67;;;2.17;;
53367;SDS011;39271;45.618;20.024;2022-11-15T04:29:33;3.95;;;1.60;;
53367;SDS011;39271;45.618;20.024;2022-11-15T04:32:00;1.40;;;1.30;;
53367;SDS011;39271;45.618;20.024;2022-11-15T04:34:26;1.17;;;0.95;;
53367;SDS011;39271;45.618;20.024;2022-11-15T04:36:52;1.40;;;1.30;;
53367;SDS011;39271;45.618;20.024;2022-11-15T04:39:36;4.07;;;1.63;;
53367;SDS011;39271;45.618;20.024;2022-11-15T04:42:02;1.02;;;1.00;;
53367;SDS011;39271;45.618;20.024;2022-11-15T04:44:28;1.55;;;0.77;;
53367;SDS011;39271;45.618;20.024;2022-11-15T04:46:56;4.05;;;0.90;;
53367;SDS011;39271;45.618;20.024;2022-11-15T04:49:22;1.40;;;1.00;;
53367;SDS011;39271;45.618;20.024;2022-11-15T04:51:48;0.95;;;0.95;;
53367;SDS011;39271;45.618;20.024;2022-11-15T04:54:14;0.47;;;0.47;;
53367;SDS011;39271;45.618;20.024;2022-11-15T04:56:40;0.68;;;0.68;;
53367;SDS011;39271;45.618;20.024;2022-11-15T04:59:06;1.20;;;0.88;;
53367;SDS011;39271;45.618;20.024;2022-11-15T05:01:32;1.10;;;1.00;;
53367;SDS011;39271;45.618;20.024;2022-11-15T05:03:58;0.75;;;0.75;;
53367;SDS011;39271;45.618;20.024;2022-11-15T05:06:43;4.28;;;0.70;;
53367;SDS011;39271;45.618;20.024;2022-11-15T05:09:09;0.95;;;0.85;;
53367;SDS011;39271;45.618;20.024;2022-11-15T05:11:35;1.63;;;1.00;;
53367;SDS011;39271;45.618;20.024;2022-11-15T05:14:04;1.45;;;1.15;;
53367;SDS011;39271;45.618;20.024;2022-11-15T05:16:30;1.70;;;1.55;;
53367;SDS011;39271;45.618;20.024;2022-11-15T05:18:56;0.68;;;0.68;;
53367;SDS011;39271;45.618;20.024;2022-11-15T05:21:22;1.27;;;1.05;;
53367;SDS011;39271;45.618;20.024;2022-11-15T05:23:49;1.90;;;1.40;;
53367;SDS011;39271;45.618;20.024;2022-11-15T05:26:15;0.93;;;0.90;;
53367;SDS011;39271;45.618;20.024;2022-11-15T05:28:42;0.85;;;0.85;;
53367;SDS011;39271;45.618;20.024;2022-11-15T05:33:38;2.85;;;0.88;;
53367;SDS011;39271;45.618;20.024;2022-11-15T05:36:06;2.10;;;0.88;;
53367;SDS011;39271;45.618;20.024;2022-11-15T05:38:33;1.15;;;1.05;;
53367;SDS011;39271;45.618;20.024;2022-11-15T05:43:25;0.95;;;0.95;;
53367;SDS011;39271;45.618;20.024;2022-11-15T05:48:17;2.60;;;1.80;;
53367;SDS011;39271;45.618;20.024;2022-11-15T05:50:45;2.50;;;1.25;;
53367;SDS011;39271;45.618;20.024;2022-11-15T05:53:16;1.33;;;1.15;;
53367;SDS011;39271;45.618;20.024;2022-11-15T05:55:44;1.10;;;1.00;;
53367;SDS011;39271;45.618;20.024;2022-11-15T05:58:10;5.97;;;2.28;;
53367;SDS011;39271;45.618;20.024;2022-11-15T06:00:36;3.22;;;2.28;;
53367;SDS011;39271;45.618;20.024;2022-11-15T06:03:02;2.80;;;1.70;;
53367;SDS011;39271;45.618;20.024;2022-11-15T06:05:31;4.00;;;1.88;;
53367;SDS011;39271;45.618;20.024;2022-11-15T06:07:57;3.00;;;1.60;;
53367;SDS011;39271;45.618;20.024;2022-11-15T06:10:24;2.67;;;1.33;;
53367;SDS011;39271;45.618;20.024;2022-11-15T06:15:16;1.17;;;0.70;;
53367;SDS011;39271;45.618;20.024;2022-11-15T06:17:42;2.60;;;1.80;;
53367;SDS011;39271;45.618;20.024;2022-11-15T06:20:08;4.20;;;2.17;;
53367;SDS011;39271;45.618;20.024;2022-11-15T06:25:00;3.88;;;1.23;;
53367;SDS011;39271;45.618;20.024;2022-11-15T06:27:26;1.08;;;1.00;;
53367;SDS011;39271;45.618;20.024;2022-11-15T06:29:52;6.93;;;1.00;;
53367;SDS011;39271;45.618;20.024;2022-11-15T06:32:21;1.30;;;1.25;;
53367;SDS011;39271;45.618;20.024;2022-11-15T06:34:47;9.98;;;2.03;;
53367;SDS011;39271;45.618;20.024;2022-11-15T06:37:14;2.40;;;1.65;;
53367;SDS011;39271;45.618;20.024;2022-11-15T06:39:40;0.57;;;0.55;;
53367;SDS011;39271;45.618;20.024;2022-11-15T06:42:07;5.65;;;2.15;;
53367;SDS011;39271;45.618;20.024;2022-11-15T06:44:33;1.58;;;1.15;;
53367;SDS011;39271;45.618;20.024;2022-11-15T06:46:59;2.53;;;1.58;;
53367;SDS011;39271;45.618;20.024;2022-11-15T06:49:26;2.53;;;0.95;;
53367;SDS011;39271;45.618;20.024;2022-11-15T06:51:52;1.83;;;1.60;;
53367;SDS011;39271;45.618;20.024;2022-11-15T06:54:20;1.73;;;1.52;;
53367;SDS011;39271;45.618;20.024;2022-11-15T06:56:47;2.03;;;1.50;;
53367;SDS011;39271;45.618;20.024;2022-11-15T06:59:15;3.65;;;1.23;;
53367;SDS011;39271;45.618;20.024;2022-11-15T07:01:42;3.38;;;2.25;;
53367;SDS011;39271;45.618;20.024;2022-11-15T07:06:34;6.38;;;2.97;;
53367;SDS011;39271;45.618;20.024;2022-11-15T07:09:01;3.58;;;2.67;;
53367;SDS011;39271;45.618;20.024;2022-11-15T07:11:32;2.78;;;1.95;;
53367;SDS011;39271;45.618;20.024;2022-11-15T07:13:59;3.00;;;1.65;;
53367;SDS011;39271;45.618;20.024;2022-11-15T07:16:32;4.40;;;1.73;;
53367;SDS011;39271;45.618;20.024;2022-11-15T07:18:59;3.05;;;1.58;;
53367;SDS011;39271;45.618;20.024;2022-11-15T07:21:27;4.35;;;1.83;;
53367;SDS011;39271;45.618;20.024;2022-11-15T07:26:19;2.60;;;1.88;;
53367;SDS011;39271;45.618;20.024;2022-11-15T07:31:17;0.85;;;0.80;;
53367;SDS011;39271;45.618;20.024;2022-11-15T07:33:45;1.10;;;0.98;;
53367;SDS011;39271;45.618;20.024;2022-11-15T07:39:04;2.33;;;1.52;;
53367;SDS011;39271;45.618;20.024;2022-11-15T07:41:30;3.13;;;1.73;;
53367;SDS011;39271;45.618;20.024;2022-11-15T07:43:57;5.05;;;2.30;;
53367;SDS011;39271;45.618;20.024;2022-11-15T07:46:25;4.72;;;2.28;;
53367;SDS011;39271;45.618;20.024;2022-11-15T07:51:55;1.48;;;1.33;;
53367;SDS011;39271;45.618;20.024;2022-11-15T07:54:21;2.15;;;1.65;;
53367;SDS011;39271;45.618;20.024;2022-11-15T07:56:49;2.88;;;2.05;;
53367;SDS011;39271;45.618;20.024;2022-11-15T08:01:45;3.15;;;2.00;;
53367;SDS011;39271;45.618;20.024;2022-11-15T08:04:23;4.85;;;2.65;;
53367;SDS011;39271;45.618;20.024;2022-11-15T08:06:54;4.13;;;2.20;;
53367;SDS011;39271;45.618;20.024;2022-11-15T08:09:26;2.63;;;2.05;;
53367;SDS011;39271;45.618;20.024;2022-11-15T08:11:52;2.53;;;1.83;;
53367;SDS011;39271;45.618;20.024;2022-11-15T08:16:47;3.17;;;1.55;;
53367;SDS011;39271;45.618;20.024;2022-11-15T08:19:15;1.27;;;1.00;;
53367;SDS011;39271;45.618;20.024;2022-11-15T08:21:45;4.20;;;2.60;;
53367;SDS011;39271;45.618;20.024;2022-11-15T08:24:16;6.22;;;2.97;;
53367;SDS011;39271;45.618;20.024;2022-11-15T08:26:42;2.58;;;1.38;;
53367;SDS011;39271;45.618;20.024;2022-11-15T08:31:35;0.95;;;0.90;;
53367;SDS011;39271;45.618;20.024;2022-11-15T08:34:06;6.75;;;2.30;;
53367;SDS011;39271;45.618;20.024;2022-11-15T08:36:35;1.25;;;1.17;;
53367;SDS011;39271;45.618;20.024;2022-11-15T08:39:04;2.92;;;1.73;;
53367;SDS011;39271;45.618;20.024;2022-11-15T08:44:52;1.77;;;1.20;;
53367;SDS011;39271;45.618;20.024;2022-11-15T08:47:23;2.17;;;1.52;;
53367;SDS011;39271;45.618;20.024;2022-11-15T08:49:52;2.47;;;1.75;;
53367;SDS011;39271;45.618;20.024;2022-11-15T08:52:18;4.63;;;3.17;;
53367;SDS011;39271;45.618;20.024;2022-11-15T08:57:10;4.00;;;1.65;;
53367;SDS011;39271;45.618;20.024;2022-11-15T08:59:36;13.63;;;2.60;;
53367;SDS011;39271;45.618;20.024;2022-11-15T09:02:03;3.28;;;1.52;;
53367;SDS011;39271;45.618;20.024;2022-11-15T09:04:29;2.33;;;1.67;;
53367;SDS011;39271;45.618;20.024;2022-11-15T09:06:58;4.03;;;3.05;;
53367;SDS011;39271;45.618;20.024;2022-11-15T09:11:52;3.88;;;2.15;;
53367;SDS011;39271;45.618;20.024;2022-11-15T09:14:18;1.73;;;1.33;;
53367;SDS011;39271;45.618;20.024;2022-11-15T09:16:44;4.25;;;2.38;;
53367;SDS011;39271;45.618;20.024;2022-11-15T09:19:11;4.03;;;1.73;;
53367;SDS011;39271;45.618;20.024;2022-11-15T09:21:39;2.17;;;1.65;;
53367;SDS011;39271;45.618;20.024;2022-11-15T09:24:18;2.83;;;1.80;;
53367;SDS011;39271;45.618;20.024;2022-11-15T09:30:06;1.70;;;1.60;;
53367;SDS011;39271;45.618;20.024;2022-11-15T09:32:32;3.20;;;2.10;;
53367;SDS011;39271;45.618;20.024;2022-11-15T09:35:00;1.73;;;1.30;;
53367;SDS011;39271;45.618;20.024;2022-11-15T09:37:32;1.90;;;1.35;;
53367;SDS011;39271;45.618;20.024;2022-11-15T09:39:58;3.60;;;1.80;;
53367;SDS011;39271;45.618;20.024;2022-11-15T09:50:48;4.05;;;2.42;;
53367;SDS011;39271;45.618;20.024;2022-11-15T09:53:34;4.65;;;2.75;;
53367;SDS011;39271;45.618;20.024;2022-11-15T09:56:14;4.30;;;3.17;;
53367;SDS011;39271;45.618;20.024;2022-11-15T10:04:17;3.47;;;1.98;;
53367;SDS011;39271;45.618;20.024;2022-11-15T10:06:52;2.40;;;1.95;;
53367;SDS011;39271;45.618;20.024;2022-11-15T10:09:23;2.17;;;1.50;;
53367;SDS011;39271;45.618;20.024;2022-11-15T10:11:50;5.20;;;2.95;;
53367;SDS011;39271;45.618;20.024;2022-11-15T10:14:18;1.80;;;1.23;;
53367;SDS011;39271;45.618;20.024;2022-11-15T10:27:41;2.28;;;1.77;;
53367;SDS011;39271;45.618;20.024;2022-11-15T10:30:13;6.85;;;2.08;;
53367;SDS011;39271;45.618;20.024;2022-11-15T10:32:45;9.57;;;2.45;;
53367;SDS011;39271;45.618;20.024;2022-11-15T10:41:43;24.88;;;3.65;;
53367;SDS011;39271;45.618;20.024;2022-11-15T10:46:39;3.30;;;2.40;;
53367;SDS011;39271;45.618;20.024;2022-11-15T10:49:12;5.13;;;2.50;;
53367;SDS011;39271;45.618;20.024;2022-11-15T10:51:42;6.65;;;2.35;;
53367;SDS011;39271;45.618;20.024;2022-11-15T10:54:09;2.63;;;2.13;;
53367;SDS011;39271;45.618;20.024;2022-11-15T10:56:36;5.82;;;2.70;;
53367;SDS011;39271;45.618;20.024;2022-11-15T10:59:09;4.07;;;2.13;;
53367;SDS011;39271;45.618;20.024;2022-11-15T11:01:46;7.43;;;2.28;;
53367;SDS011;39271;45.618;20.024;2022-11-15T11:04:16;3.10;;;2.33;;
53367;SDS011;39271;45.618;20.024;2022-11-15T11:11:59;5.15;;;2.30;;
53367;SDS011;39271;45.618;20.024;2022-11-15T11:14:29;7.68;;;2.20;;
53367;SDS011;39271;45.618;20.024;2022-11-15T11:30:21;5.85;;;2.20;;
53367;SDS011;39271;45.618;20.024;2022-11-15T11:35:29;3.90;;;1.83;;
53367;SDS011;39271;45.618;20.024;2022-11-15T11:40:44;3.08;;;1.90;;
53367;SDS011;39271;45.618;20.024;2022-11-15T11:49:03;2.55;;;2.00;;
53367;SDS011;39271;45.618;20.024;2022-11-15T11:51:34;4.05;;;2.90;;
53367;SDS011;39271;45.618;20.024;2022-11-15T11:54:22;4.10;;;1.27;;
53367;SDS011;39271;45.618;20.024;2022-11-15T11:56:49;5.30;;;2.80;;
53367;SDS011;39271;45.618;20.024;2022-11-15T11:59:19;4.63;;;2.33;;
53367;SDS011;39271;45.618;20.024;2022-11-15T12:01:50;4.82;;;2.10;;
53367;SDS011;39271;45.618;20.024;2022-11-15T12:04:29;3.22;;;1.92;;
53367;SDS011;39271;45.618;20.024;2022-11-15T12:07:10;5.93;;;2.63;;
53367;SDS011;39271;45.618;20.024;2022-11-15T12:09:42;7.60;;;2.42;;
53367;SDS011;39271;45.618;20.024;2022-11-15T12:12:11;3.60;;;2.10;;
53367;SDS011;39271;45.618;20.024;2022-11-15T12:17:28;9.75;;;3.15;;
53367;SDS011;39271;45.618;20.024;2022-11-15T12:20:05;3.70;;;2.15;;
53367;SDS011;39271;45.618;20.024;2022-11-15T12:27:56;5.80;;;3.70;;
53367;SDS011;39271;45.618;20.024;2022-11-15T12:30:23;11.45;;;3.08;;
53367;SDS011;39271;45.618;20.024;2022-11-15T12:33:01;8.25;;;2.97;;
53367;SDS011;39271;45.618;20.024;2022-11-15T12:35:32;5.22;;;3.10;;
53367;SDS011;39271;45.618;20.024;2022-11-15T12:38:00;4.18;;;2.13;;
53367;SDS011;39271;45.618;20.024;2022-11-15T12:45:34;4.07;;;2.53;;
53367;SDS011;39271;45.618;20.024;2022-11-15T12:53:37;4.97;;;2.58;;
53367;SDS011;39271;45.618;20.024;2022-11-15T13:04:08;4.32;;;3.10;;
53367;SDS011;39271;45.618;20.024;2022-11-15T13:06:41;2.00;;;1.80;;
53367;SDS011;39271;45.618;20.024;2022-11-15T13:11:58;11.40;;;3.53;;
53367;SDS011;39271;45.618;20.024;2022-11-15T13:14:49;6.25;;;2.15;;
53367;SDS011;39271;45.618;20.024;2022-11-15T13:19:59;6.65;;;3.60;;
53367;SDS011;39271;45.618;20.024;2022-11-15T13:22:32;8.57;;;4.22;;
53367;SDS011;39271;45.618;20.024;2022-11-15T13:25:16;3.70;;;2.78;;
53367;SDS011;39271;45.618;20.024;2022-11-15T13:27:47;3.53;;;2.25;;
53367;SDS011;39271;45.618;20.024;2022-11-15T13:30:19;7.60;;;3.22;;
53367;SDS011;39271;45.618;20.024;2022-11-15T13:32:46;2.88;;;2.00;;
53367;SDS011;39271;45.618;20.024;2022-11-15T13:35:22;5.63;;;2.72;;
53367;SDS011;39271;45.618;20.024;2022-11-15T13:40:36;3.75;;;2.05;;
53367;SDS011;39271;45.618;20.024;2022-11-15T13:48:36;5.60;;;3.55;;
53367;SDS011;39271;45.618;20.024;2022-11-15T13:51:03;7.00;;;3.88;;
53367;SDS011;39271;45.618;20.024;2022-11-15T13:53:39;12.73;;;3.97;;
53367;SDS011;39271;45.618;20.024;2022-11-15T13:56:06;1.52;;;1.40;;
53367;SDS011;39271;45.618;20.024;2022-11-15T14:01:03;3.85;;;2.72;;
53367;SDS011;39271;45.618;20.024;2022-11-15T14:03:31;3.58;;;2.15;;
53367;SDS011;39271;45.618;20.024;2022-11-15T14:11:37;3.42;;;2.92;;
53367;SDS011;39271;45.618;20.024;2022-11-15T14:16:47;8.98;;;4.13;;
53367;SDS011;39271;45.618;20.024;2022-11-15T14:28:28;4.57;;;2.65;;
53367;SDS011;39271;45.618;20.024;2022-11-15T14:31:35;4.50;;;2.25;;
53367;SDS011;39271;45.618;20.024;2022-11-15T14:46:22;17.73;;;4.88;;
53367;SDS011;39271;45.618;20.024;2022-11-15T14:51:30;6.38;;;3.22;;
53367;SDS011;39271;45.618;20.024;2022-11-15T14:54:01;5.18;;;2.85;;
53367;SDS011;39271;45.618;20.024;2022-11-15T14:56:27;9.85;;;3.55;;
53367;SDS011;39271;45.618;20.024;2022-11-15T14:58:53;9.35;;;3.72;;
53367;SDS011;39271;45.618;20.024;2022-11-15T15:04:18;7.25;;;3.28;;
53367;SDS011;39271;45.618;20.024;2022-11-15T15:06:45;4.75;;;2.63;;
53367;SDS011;39271;45.618;20.024;2022-11-15T15:15:24;2.95;;;1.80;;
53367;SDS011;39271;45.618;20.024;2022-11-15T15:17:59;13.93;;;4.43;;
53367;SDS011;39271;45.618;20.024;2022-11-15T15:22:58;8.07;;;4.03;;
53367;SDS011;39271;45.618;20.024;2022-11-15T15:25:37;8.27;;;4.35;;
53367;SDS011;39271;45.618;20.024;2022-11-15T15:28:06;12.73;;;4.70;;
53367;SDS011;39271;45.618;20.024;2022-11-15T15:30:39;16.58;;;6.70;;
53367;SDS011;39271;45.618;20.024;2022-11-15T15:33:14;5.30;;;3.30;;
53367;SDS011;39271;45.618;20.024;2022-11-15T15:38:26;13.70;;;5.57;;
53367;SDS011;39271;45.618;20.024;2022-11-15T15:41:01;11.07;;;4.07;;
53367;SDS011;39271;45.618;20.024;2022-11-15T15:43:48;7.28;;;5.25;;
53367;SDS011;39271;45.618;20.024;2022-11-15T15:51:34;10.85;;;5.57;;
53367;SDS011;39271;45.618;20.024;2022-11-15T15:54:00;10.77;;;5.85;;
53367;SDS011;39271;45.618;20.024;2022-11-15T15:56:26;6.47;;;5.35;;
53367;SDS011;39271;45.618;20.024;2022-11-15T15:59:11;12.30;;;6.55;;
53367;SDS011;39271;45.618;20.024;2022-11-15T16:01:55;7.68;;;3.90;;
53367;SDS011;39271;45.618;20.024;2022-11-15T16:07:34;28.80;;;9.23;;
53367;SDS011;39271;45.618;20.024;2022-11-15T16:10:07;19.85;;;7.15;;
53367;SDS011;39271;45.618;20.024;2022-11-15T16:12:47;19.85;;;8.48;;
53367;SDS011;39271;45.618;20.024;2022-11-15T16:15:14;23.25;;;7.97;;
53367;SDS011;39271;45.618;20.024;2022-11-15T16:17:41;13.90;;;6.63;;
53367;SDS011;39271;45.618;20.024;2022-11-15T16:23:00;14.40;;;6.97;;
53367;SDS011;39271;45.618;20.024;2022-11-15T16:25:53;9.02;;;4.10;;
53367;SDS011;39271;45.618;20.024;2022-11-15T16:28:33;12.32;;;6.15;;
53367;SDS011;39271;45.618;20.024;2022-11-15T16:31:03;8.05;;;3.38;;
53367;SDS011;39271;45.618;20.024;2022-11-15T16:33:32;8.88;;;4.53;;
53367;SDS011;39271;45.618;20.024;2022-11-15T16:36:03;10.02;;;5.65;;
53367;SDS011;39271;45.618;20.024;2022-11-15T16:38:54;7.97;;;4.75;;
53367;SDS011;39271;45.618;20.024;2022-11-15T16:41:20;8.35;;;3.97;;
53367;SDS011;39271;45.618;20.024;2022-11-15T16:43:51;10.05;;;5.38;;
53367;SDS011;39271;45.618;20.024;2022-11-15T16:46:18;7.55;;;4.50;;
53367;SDS011;39271;45.618;20.024;2022-11-15T16:48:48;5.57;;;4.00;;
53367;SDS011;39271;45.618;20.024;2022-11-15T16:51:14;6.90;;;4.65;;
53367;SDS011;39271;45.618;20.024;2022-11-15T16:56:35;7.72;;;3.95;;
53367;SDS011;39271;45.618;20.024;2022-11-15T16:59:08;6.30;;;4.55;;
53367;SDS011;39271;45.618;20.024;2022-11-15T17:01:39;7.28;;;4.30;;
53367;SDS011;39271;45.618;20.024;2022-11-15T17:04:13;7.85;;;3.75;;
53367;SDS011;39271;45.618;20.024;2022-11-15T17:12:51;6.10;;;3.63;;
53367;SDS011;39271;45.618;20.024;2022-11-15T17:15:27;5.75;;;4.03;;
53367;SDS011;39271;45.618;20.024;2022-11-15T17:17:56;10.90;;;4.55;;
53367;SDS011;39271;45.618;20.024;2022-11-15T17:20:25;8.18;;;4.85;;
53367;SDS011;39271;45.618;20.024;2022-11-15T17:22:51;12.70;;;5.30;;
53367;SDS011;39271;45.618;20.024;2022-11-15T17:25:17;12.15;;;5.05;;
53367;SDS011;39271;45.618;20.024;2022-11-15T17:27:44;4.05;;;3.45;;
53367;SDS011;39271;45.618;20.024;2022-11-15T17:30:11;9.35;;;5.15;;
53367;SDS011;39271;45.618;20.024;2022-11-15T17:32:37;12.25;;;4.20;;
53367;SDS011;39271;45.618;20.024;2022-11-15T17:37:45;4.95;;;3.55;;
53367;SDS011;39271;45.618;20.024;2022-11-15T17:40:12;4.70;;;3.03;;
53367;SDS011;39271;45.618;20.024;2022-11-15T17:42:43;4.25;;;3.35;;
53367;SDS011;39271;45.618;20.024;2022-11-15T17:45:09;7.03;;;4.25;;
53367;SDS011;39271;45.618;20.024;2022-11-15T17:47:36;4.38;;;3.40;;
53367;SDS011;39271;45.618;20.024;2022-11-15T17:55:19;13.32;;;4.32;;
53367;SDS011;39271;45.618;20.024;2022-11-15T17:57:50;6.65;;;5.32;;
53367;SDS011;39271;45.618;20.024;2022-11-15T18:00:30;13.57;;;6.30;;
53367;SDS011;39271;45.618;20.024;2022-11-15T18:03:25;7.88;;;3.08;;
53367;SDS011;39271;45.618;20.024;2022-11-15T18:05:51;9.38;;;3.10;;
53367;SDS011;39271;45.618;20.024;2022-11-15T18:08:17;8.05;;;3.45;;
53367;SDS011;39271;45.618;20.024;2022-11-15T18:10:47;5.43;;;2.95;;
53367;SDS011;39271;45.618;20.024;2022-11-15T18:13:13;5.38;;;2.83;;
53367;SDS011;39271;45.618;20.024;2022-11-15T18:15:42;5.68;;;3.05;;
53367;SDS011;39271;45.618;20.024;2022-11-15T18:18:13;8.95;;;4.55;;
53367;SDS011;39271;45.618;20.024;2022-11-15T18:20:40;4.45;;;3.42;;
53367;SDS011;39271;45.618;20.024;2022-11-15T18:25:39;6.55;;;2.92;;
53367;SDS011;39271;45.618;20.024;2022-11-15T18:28:10;5.38;;;3.50;;
53367;SDS011;39271;45.618;20.024;2022-11-15T18:30:39;5.18;;;2.55;;
53367;SDS011;39271;45.618;20.024;2022-11-15T18:33:15;6.47;;;3.05;;
53367;SDS011;39271;45.618;20.024;2022-11-15T18:35:42;10.18;;;4.22;;
53367;SDS011;39271;45.618;20.024;2022-11-15T18:38:28;5.50;;;3.83;;
53367;SDS011;39271;45.618;20.024;2022-11-15T18:41:12;5.63;;;4.70;;
53367;SDS011;39271;45.618;20.024;2022-11-15T18:43:52;7.85;;;3.72;;
53367;SDS011;39271;45.618;20.024;2022-11-15T18:46:19;5.32;;;2.45;;
53367;SDS011;39271;45.618;20.024;2022-11-15T18:48:45;8.10;;;2.72;;
53367;SDS011;39271;45.618;20.024;2022-11-15T18:51:17;6.90;;;3.60;;
53367;SDS011;39271;45.618;20.024;2022-11-15T18:53:44;11.07;;;2.95;;
53367;SDS011;39271;45.618;20.024;2022-11-15T18:56:14;7.90;;;3.80;;
53367;SDS011;39271;45.618;20.024;2022-11-15T18:58:50;4.65;;;1.90;;
53367;SDS011;39271;45.618;20.024;2022-11-15T19:01:27;4.25;;;1.95;;
53367;SDS011;39271;45.618;20.024;2022-11-15T19:06:36;5.28;;;2.80;;
53367;SDS011;39271;45.618;20.024;2022-11-15T19:09:03;2.05;;;1.85;;
53367;SDS011;39271;45.618;20.024;2022-11-15T19:13:58;3.00;;;2.03;;
53367;SDS011;39271;45.618;20.024;2022-11-15T19:16:27;3.75;;;2.65;;
53367;SDS011;39271;45.618;20.024;2022-11-15T19:18:58;3.45;;;2.20;;
53367;SDS011;39271;45.618;20.024;2022-11-15T19:21:27;4.05;;;3.08;;
53367;SDS011;39271;45.618;20.024;2022-11-15T19:23:54;2.95;;;2.25;;
53367;SDS011;39271;45.618;20.024;2022-11-15T19:26:23;9.27;;;2.15;;
53367;SDS011;39271;45.618;20.024;2022-11-15T19:29:00;3.42;;;2.00;;
53367;SDS011;39271;45.618;20.024;2022-11-15T19:31:40;3.85;;;2.35;;
53367;SDS011;39271;45.618;20.024;2022-11-15T19:36:52;6.50;;;3.28;;
53367;SDS011;39271;45.618;20.024;2022-11-15T19:39:21;3.00;;;1.63;;